sensor_id;sensor_type;location;lat;lon;timestamp;P1;durP1;ratioP1;P2;durP2;ratioP2
37677;SDS011;23517;50.390;8.616;2022-11-13T00:01:09;3.67;;;2.53;;
37677;SDS011;23517;50.390;8.616;2022-11-13T00:03:42;2.97;;;2.67;;
37677;SDS011;23517;50.390;8.616;2022-11-13T00:06:09;5.38;;;2.90;;
37677;SDS011;23517;50.390;8.616;2022-11-13T00:08:37;3.85;;;2.60;;
37677;SDS011;23517;50.390;8.616;2022-11-13T00:11:05;6.20;;;2.75;;
37677;SDS011;23517;50.390;8.616;2022-11-13T00:13:34;4.43;;;2.72;;
37677;SDS011;23517;50.390;8.616;2022-11-13T00:16:03;3.15;;;2.85;;
37677;SDS011;23517;50.390;8.616;2022-11-13T00:18:35;4.18;;;2.97;;
37677;SDS011;23517;50.390;8.616;2022-11-13T00:21:06;3.33;;;2.70;;
37677;SDS011;23517;50.390;8.616;2022-11-13T00:23:43;4.43;;;2.75;;
37677;SDS011;23517;50.390;8.616;2022-11-13T00:26:16;2.85;;;2.50;;
37677;SDS011;23517;50.390;8.616;2022-11-13T00:28:46;2.95;;;2.25;;
37677;SDS011;23517;50.390;8.616;2022-11-13T00:31:17;4.30;;;2.63;;
37677;SDS011;23517;50.390;8.616;2022-11-13T00:33:44;4.05;;;2.20;;
37677;SDS011;23517;50.390;8.616;2022-11-13T00:36:30;2.72;;;2.50;;
37677;SDS011;23517;50.390;8.616;2022-11-13T00:38:58;6.38;;;2.50;;
37677;SDS011;23517;50.390;8.616;2022-11-13T00:41:28;3.67;;;2.38;;
37677;SDS011;23517;50.390;8.616;2022-11-13T00:43:55;2.50;;;2.30;;
37677;SDS011;23517;50.390;8.616;2022-11-13T00:46:21;4.10;;;2.55;;
37677;SDS011;23517;50.390;8.616;2022-11-13T00:48:48;4.93;;;2.25;;
37677;SDS011;23517;50.390;8.616;2022-11-13T00:51:15;2.88;;;2.17;;
37677;SDS011;23517;50.390;8.616;2022-11-13T00:53:42;3.97;;;2.35;;
37677;SDS011;23517;50.390;8.616;2022-11-13T00:56:09;2.75;;;2.40;;
37677;SDS011;23517;50.390;8.616;2022-11-13T00:58:36;3.40;;;2.40;;
37677;SDS011;23517;50.390;8.616;2022-11-13T01:01:07;4.03;;;2.33;;
37677;SDS011;23517;50.390;8.616;2022-11-13T01:03:39;4.40;;;2.40;;
37677;SDS011;23517;50.390;8.616;2022-11-13T01:08:43;4.13;;;2.15;;
37677;SDS011;23517;50.390;8.616;2022-11-13T01:11:10;5.45;;;2.33;;
37677;SDS011;23517;50.390;8.616;2022-11-13T01:13:45;3.30;;;2.35;;
37677;SDS011;23517;50.390;8.616;2022-11-13T01:16:15;3.40;;;2.20;;
37677;SDS011;23517;50.390;8.616;2022-11-13T01:18:43;2.28;;;1.90;;
37677;SDS011;23517;50.390;8.616;2022-11-13T01:21:11;3.10;;;2.15;;
37677;SDS011;23517;50.390;8.616;2022-11-13T01:23:44;5.57;;;2.22;;
37677;SDS011;23517;50.390;8.616;2022-11-13T01:26:13;2.60;;;2.20;;
37677;SDS011;23517;50.390;8.616;2022-11-13T01:28:45;4.63;;;2.10;;
37677;SDS011;23517;50.390;8.616;2022-11-13T01:31:14;5.45;;;2.58;;
37677;SDS011;23517;50.390;8.616;2022-11-13T01:33:44;5.88;;;2.30;;
37677;SDS011;23517;50.390;8.616;2022-11-13T01:36:14;3.45;;;1.98;;
37677;SDS011;23517;50.390;8.616;2022-11-13T01:38:50;2.53;;;1.80;;
37677;SDS011;23517;50.390;8.616;2022-11-13T01:41:30;1.80;;;1.70;;
37677;SDS011;23517;50.390;8.616;2022-11-13T01:43:59;3.28;;;2.08;;
37677;SDS011;23517;50.390;8.616;2022-11-13T01:46:28;2.70;;;2.13;;
37677;SDS011;23517;50.390;8.616;2022-11-13T01:51:36;5.65;;;2.00;;
37677;SDS011;23517;50.390;8.616;2022-11-13T01:54:12;2.28;;;1.85;;
37677;SDS011;23517;50.390;8.616;2022-11-13T01:56:44;5.53;;;2.35;;
37677;SDS011;23517;50.390;8.616;2022-11-13T01:59:13;2.65;;;2.28;;
37677;SDS011;23517;50.390;8.616;2022-11-13T02:01:43;4.43;;;1.95;;
37677;SDS011;23517;50.390;8.616;2022-11-13T02:04:10;2.35;;;1.90;;
37677;SDS011;23517;50.390;8.616;2022-11-13T02:06:56;2.28;;;2.00;;
37677;SDS011;23517;50.390;8.616;2022-11-13T02:09:27;2.30;;;2.10;;
37677;SDS011;23517;50.390;8.616;2022-11-13T02:11:58;3.05;;;1.95;;
37677;SDS011;23517;50.390;8.616;2022-11-13T02:14:27;2.00;;;1.73;;
37677;SDS011;23517;50.390;8.616;2022-11-13T02:16:55;2.33;;;1.85;;
37677;SDS011;23517;50.390;8.616;2022-11-13T02:19:33;2.85;;;2.00;;
37677;SDS011;23517;50.390;8.616;2022-11-13T02:24:44;1.70;;;1.60;;
37677;SDS011;23517;50.390;8.616;2022-11-13T02:32:54;2.08;;;1.80;;
37677;SDS011;23517;50.390;8.616;2022-11-13T02:35:26;2.22;;;1.67;;
37677;SDS011;23517;50.390;8.616;2022-11-13T02:37:58;2.53;;;2.08;;
37677;SDS011;23517;50.390;8.616;2022-11-13T02:40:27;3.53;;;2.15;;
37677;SDS011;23517;50.390;8.616;2022-11-13T02:42:54;2.90;;;2.08;;
37677;SDS011;23517;50.390;8.616;2022-11-13T02:45:21;4.97;;;1.70;;
37677;SDS011;23517;50.390;8.616;2022-11-13T02:47:48;1.67;;;1.58;;
37677;SDS011;23517;50.390;8.616;2022-11-13T02:50:15;2.38;;;2.13;;
37677;SDS011;23517;50.390;8.616;2022-11-13T02:52:42;3.00;;;1.92;;
37677;SDS011;23517;50.390;8.616;2022-11-13T02:55:09;4.05;;;2.42;;
37677;SDS011;23517;50.390;8.616;2022-11-13T02:57:36;3.90;;;2.03;;
37677;SDS011;23517;50.390;8.616;2022-11-13T03:00:03;4.97;;;2.30;;
37677;SDS011;23517;50.390;8.616;2022-11-13T03:02:38;2.00;;;1.75;;
37677;SDS011;23517;50.390;8.616;2022-11-13T03:05:05;3.60;;;1.75;;
37677;SDS011;23517;50.390;8.616;2022-11-13T03:07:37;2.63;;;1.90;;
37677;SDS011;23517;50.390;8.616;2022-11-13T03:10:04;5.07;;;2.30;;
37677;SDS011;23517;50.390;8.616;2022-11-13T03:12:32;2.45;;;2.20;;
37677;SDS011;23517;50.390;8.616;2022-11-13T03:15:01;3.40;;;2.22;;
37677;SDS011;23517;50.390;8.616;2022-11-13T03:17:34;3.22;;;2.10;;
37677;SDS011;23517;50.390;8.616;2022-11-13T03:20:07;1.95;;;1.60;;
37677;SDS011;23517;50.390;8.616;2022-11-13T03:22:44;4.18;;;1.48;;
37677;SDS011;23517;50.390;8.616;2022-11-13T03:25:20;1.77;;;1.40;;
37677;SDS011;23517;50.390;8.616;2022-11-13T03:27:47;2.00;;;1.40;;
37677;SDS011;23517;50.390;8.616;2022-11-13T03:30:14;2.03;;;1.40;;
37677;SDS011;23517;50.390;8.616;2022-11-13T03:32:40;1.45;;;1.30;;
37677;SDS011;23517;50.390;8.616;2022-11-13T03:35:07;2.88;;;1.70;;
37677;SDS011;23517;50.390;8.616;2022-11-13T03:37:34;2.45;;;1.45;;
37677;SDS011;23517;50.390;8.616;2022-11-13T03:40:00;3.42;;;1.23;;
37677;SDS011;23517;50.390;8.616;2022-11-13T03:42:27;2.90;;;1.77;;
37677;SDS011;23517;50.390;8.616;2022-11-13T03:44:54;2.00;;;1.80;;
37677;SDS011;23517;50.390;8.616;2022-11-13T03:47:20;2.20;;;1.75;;
37677;SDS011;23517;50.390;8.616;2022-11-13T03:49:47;5.35;;;1.80;;
37677;SDS011;23517;50.390;8.616;2022-11-13T03:52:14;3.35;;;1.58;;
37677;SDS011;23517;50.390;8.616;2022-11-13T03:54:40;3.05;;;1.75;;
37677;SDS011;23517;50.390;8.616;2022-11-13T03:57:07;3.70;;;1.85;;
37677;SDS011;23517;50.390;8.616;2022-11-13T03:59:33;3.92;;;1.33;;
37677;SDS011;23517;50.390;8.616;2022-11-13T04:02:00;4.53;;;1.80;;
37677;SDS011;23517;50.390;8.616;2022-11-13T04:04:26;5.05;;;1.63;;
37677;SDS011;23517;50.390;8.616;2022-11-13T04:06:53;1.75;;;1.65;;
37677;SDS011;23517;50.390;8.616;2022-11-13T04:09:21;1.52;;;1.42;;
37677;SDS011;23517;50.390;8.616;2022-11-13T04:11:48;6.40;;;1.60;;
37677;SDS011;23517;50.390;8.616;2022-11-13T04:14:15;1.92;;;1.52;;
37677;SDS011;23517;50.390;8.616;2022-11-13T04:16:41;1.60;;;1.35;;
37677;SDS011;23517;50.390;8.616;2022-11-13T04:19:10;1.95;;;1.55;;
37677;SDS011;23517;50.390;8.616;2022-11-13T04:21:37;3.58;;;1.65;;
37677;SDS011;23517;50.390;8.616;2022-11-13T04:24:04;3.40;;;1.60;;
37677;SDS011;23517;50.390;8.616;2022-11-13T04:26:30;4.47;;;1.83;;
37677;SDS011;23517;50.390;8.616;2022-11-13T04:28:57;2.65;;;1.38;;
37677;SDS011;23517;50.390;8.616;2022-11-13T04:31:24;2.20;;;1.60;;
37677;SDS011;23517;50.390;8.616;2022-11-13T04:33:50;2.00;;;1.40;;
37677;SDS011;23517;50.390;8.616;2022-11-13T04:36:17;3.10;;;1.20;;
37677;SDS011;23517;50.390;8.616;2022-11-13T04:38:43;3.95;;;1.60;;
37677;SDS011;23517;50.390;8.616;2022-11-13T04:41:11;1.38;;;1.20;;
37677;SDS011;23517;50.390;8.616;2022-11-13T04:43:57;3.13;;;1.52;;
37677;SDS011;23517;50.390;8.616;2022-11-13T04:46:23;1.50;;;1.30;;
37677;SDS011;23517;50.390;8.616;2022-11-13T04:48:50;1.65;;;1.30;;
37677;SDS011;23517;50.390;8.616;2022-11-13T04:51:17;2.22;;;1.55;;
37677;SDS011;23517;50.390;8.616;2022-11-13T04:53:43;1.58;;;1.27;;
37677;SDS011;23517;50.390;8.616;2022-11-13T04:56:12;1.42;;;1.27;;
37677;SDS011;23517;50.390;8.616;2022-11-13T04:58:38;2.55;;;1.40;;
37677;SDS011;23517;50.390;8.616;2022-11-13T05:01:05;2.35;;;1.58;;
37677;SDS011;23517;50.390;8.616;2022-11-13T05:03:32;1.67;;;1.33;;
37677;SDS011;23517;50.390;8.616;2022-11-13T05:06:05;3.38;;;1.60;;
37677;SDS011;23517;50.390;8.616;2022-11-13T05:08:34;6.07;;;1.13;;
37677;SDS011;23517;50.390;8.616;2022-11-13T05:11:02;2.35;;;1.25;;
37677;SDS011;23517;50.390;8.616;2022-11-13T05:13:29;2.72;;;1.20;;
37677;SDS011;23517;50.390;8.616;2022-11-13T05:15:58;2.35;;;1.20;;
37677;SDS011;23517;50.390;8.616;2022-11-13T05:18:33;2.72;;;1.50;;
37677;SDS011;23517;50.390;8.616;2022-11-13T05:21:02;1.95;;;1.50;;
37677;SDS011;23517;50.390;8.616;2022-11-13T05:23:31;1.67;;;1.38;;
37677;SDS011;23517;50.390;8.616;2022-11-13T05:26:00;5.60;;;1.55;;
37677;SDS011;23517;50.390;8.616;2022-11-13T05:28:28;6.32;;;1.60;;
37677;SDS011;23517;50.390;8.616;2022-11-13T05:31:03;2.25;;;1.30;;
37677;SDS011;23517;50.390;8.616;2022-11-13T05:33:38;1.33;;;1.23;;
37677;SDS011;23517;50.390;8.616;2022-11-13T05:36:07;1.55;;;1.20;;
37677;SDS011;23517;50.390;8.616;2022-11-13T05:38:41;1.67;;;1.25;;
37677;SDS011;23517;50.390;8.616;2022-11-13T05:41:09;1.95;;;1.27;;
37677;SDS011;23517;50.390;8.616;2022-11-13T05:43:41;1.50;;;1.33;;
37677;SDS011;23517;50.390;8.616;2022-11-13T05:46:09;1.50;;;1.40;;
37677;SDS011;23517;50.390;8.616;2022-11-13T05:48:39;4.60;;;1.50;;
37677;SDS011;23517;50.390;8.616;2022-11-13T05:51:13;2.05;;;1.60;;
37677;SDS011;23517;50.390;8.616;2022-11-13T05:53:44;1.92;;;1.70;;
37677;SDS011;23517;50.390;8.616;2022-11-13T05:56:12;2.05;;;1.60;;
37677;SDS011;23517;50.390;8.616;2022-11-13T05:58:51;1.85;;;1.45;;
37677;SDS011;23517;50.390;8.616;2022-11-13T06:01:21;3.63;;;1.48;;
37677;SDS011;23517;50.390;8.616;2022-11-13T06:03:51;2.83;;;1.52;;
37677;SDS011;23517;50.390;8.616;2022-11-13T06:06:21;1.55;;;1.30;;
37677;SDS011;23517;50.390;8.616;2022-11-13T06:08:49;11.88;;;5.35;;
37677;SDS011;23517;50.390;8.616;2022-11-13T06:11:21;15.80;;;9.68;;
37677;SDS011;23517;50.390;8.616;2022-11-13T06:13:50;14.77;;;7.68;;
37677;SDS011;23517;50.390;8.616;2022-11-13T06:16:23;6.55;;;4.30;;
37677;SDS011;23517;50.390;8.616;2022-11-13T06:18:58;6.28;;;4.55;;
37677;SDS011;23517;50.390;8.616;2022-11-13T06:21:29;6.53;;;4.10;;
37677;SDS011;23517;50.390;8.616;2022-11-13T06:23:57;2.92;;;2.50;;
37677;SDS011;23517;50.390;8.616;2022-11-13T06:26:26;2.60;;;2.40;;
37677;SDS011;23517;50.390;8.616;2022-11-13T06:28:59;3.78;;;2.72;;
37677;SDS011;23517;50.390;8.616;2022-11-13T06:31:29;3.25;;;2.50;;
37677;SDS011;23517;50.390;8.616;2022-11-13T06:33:58;7.65;;;5.47;;
37677;SDS011;23517;50.390;8.616;2022-11-13T06:36:30;7.45;;;5.22;;
37677;SDS011;23517;50.390;8.616;2022-11-13T06:39:00;10.90;;;4.90;;
37677;SDS011;23517;50.390;8.616;2022-11-13T06:41:28;12.05;;;5.13;;
37677;SDS011;23517;50.390;8.616;2022-11-13T06:43:56;3.75;;;2.63;;
37677;SDS011;23517;50.390;8.616;2022-11-13T06:46:29;4.68;;;2.10;;
37677;SDS011;23517;50.390;8.616;2022-11-13T06:48:56;4.20;;;2.53;;
37677;SDS011;23517;50.390;8.616;2022-11-13T06:51:24;6.15;;;2.35;;
37677;SDS011;23517;50.390;8.616;2022-11-13T06:53:54;2.78;;;2.33;;
37677;SDS011;23517;50.390;8.616;2022-11-13T06:56:22;5.65;;;4.32;;
37677;SDS011;23517;50.390;8.616;2022-11-13T06:58:49;9.85;;;4.97;;
37677;SDS011;23517;50.390;8.616;2022-11-13T07:01:18;5.47;;;4.13;;
37677;SDS011;23517;50.390;8.616;2022-11-13T07:03:48;3.45;;;2.47;;
37677;SDS011;23517;50.390;8.616;2022-11-13T07:06:16;3.67;;;2.83;;
37677;SDS011;23517;50.390;8.616;2022-11-13T07:08:45;3.25;;;2.55;;
37677;SDS011;23517;50.390;8.616;2022-11-13T07:11:13;5.72;;;1.77;;
37677;SDS011;23517;50.390;8.616;2022-11-13T07:13:42;3.55;;;2.05;;
37677;SDS011;23517;50.390;8.616;2022-11-13T07:16:10;4.80;;;3.92;;
37677;SDS011;23517;50.390;8.616;2022-11-13T07:18:43;7.50;;;5.00;;
37677;SDS011;23517;50.390;8.616;2022-11-13T07:21:15;8.70;;;6.07;;
37677;SDS011;23517;50.390;8.616;2022-11-13T07:23:42;6.15;;;3.22;;
37677;SDS011;23517;50.390;8.616;2022-11-13T07:26:09;3.65;;;2.92;;
37677;SDS011;23517;50.390;8.616;2022-11-13T07:28:36;7.82;;;3.03;;
37677;SDS011;23517;50.390;8.616;2022-11-13T07:31:04;8.05;;;4.03;;
37677;SDS011;23517;50.390;8.616;2022-11-13T07:33:32;8.73;;;6.70;;
37677;SDS011;23517;50.390;8.616;2022-11-13T07:35:59;12.98;;;11.57;;
37677;SDS011;23517;50.390;8.616;2022-11-13T07:38:26;7.13;;;6.45;;
37677;SDS011;23517;50.390;8.616;2022-11-13T07:40:53;3.83;;;2.80;;
37677;SDS011;23517;50.390;8.616;2022-11-13T07:43:19;4.65;;;2.40;;
37677;SDS011;23517;50.390;8.616;2022-11-13T07:45:46;4.05;;;2.00;;
37677;SDS011;23517;50.390;8.616;2022-11-13T07:48:20;4.72;;;3.95;;
37677;SDS011;23517;50.390;8.616;2022-11-13T07:50:47;4.00;;;2.88;;
37677;SDS011;23517;50.390;8.616;2022-11-13T07:53:15;2.67;;;2.33;;
37677;SDS011;23517;50.390;8.616;2022-11-13T07:55:42;4.45;;;2.90;;
37677;SDS011;23517;50.390;8.616;2022-11-13T07:58:08;2.63;;;2.42;;
37677;SDS011;23517;50.390;8.616;2022-11-13T08:00:35;2.78;;;2.38;;
37677;SDS011;23517;50.390;8.616;2022-11-13T08:03:06;4.82;;;2.50;;
37677;SDS011;23517;50.390;8.616;2022-11-13T08:05:38;2.25;;;2.05;;
37677;SDS011;23517;50.390;8.616;2022-11-13T08:08:06;4.07;;;2.83;;
37677;SDS011;23517;50.390;8.616;2022-11-13T08:10:34;3.80;;;2.40;;
37677;SDS011;23517;50.390;8.616;2022-11-13T08:13:02;3.95;;;2.47;;
37677;SDS011;23517;50.390;8.616;2022-11-13T08:15:32;4.32;;;2.47;;
37677;SDS011;23517;50.390;8.616;2022-11-13T08:18:00;4.63;;;2.05;;
37677;SDS011;23517;50.390;8.616;2022-11-13T08:20:30;2.92;;;2.13;;
37677;SDS011;23517;50.390;8.616;2022-11-13T08:22:59;3.85;;;2.20;;
37677;SDS011;23517;50.390;8.616;2022-11-13T08:25:28;2.85;;;1.88;;
37677;SDS011;23517;50.390;8.616;2022-11-13T08:27:57;3.42;;;2.05;;
37677;SDS011;23517;50.390;8.616;2022-11-13T08:30:25;3.60;;;2.22;;
37677;SDS011;23517;50.390;8.616;2022-11-13T08:32:53;4.85;;;2.28;;
37677;SDS011;23517;50.390;8.616;2022-11-13T08:35:20;5.05;;;2.30;;
37677;SDS011;23517;50.390;8.616;2022-11-13T08:37:54;4.78;;;2.25;;
37677;SDS011;23517;50.390;8.616;2022-11-13T08:40:27;6.00;;;2.58;;
37677;SDS011;23517;50.390;8.616;2022-11-13T08:42:57;3.78;;;2.50;;
37677;SDS011;23517;50.390;8.616;2022-11-13T08:45:29;5.05;;;3.13;;
37677;SDS011;23517;50.390;8.616;2022-11-13T08:48:02;3.58;;;3.20;;
37677;SDS011;23517;50.390;8.616;2022-11-13T08:50:30;4.20;;;3.55;;
37677;SDS011;23517;50.390;8.616;2022-11-13T08:52:59;7.05;;;4.30;;
37677;SDS011;23517;50.390;8.616;2022-11-13T08:55:27;4.88;;;3.75;;
37677;SDS011;23517;50.390;8.616;2022-11-13T08:57:56;7.82;;;4.07;;
37677;SDS011;23517;50.390;8.616;2022-11-13T09:00:25;8.20;;;4.57;;
37677;SDS011;23517;50.390;8.616;2022-11-13T09:02:54;5.85;;;4.35;;
37677;SDS011;23517;50.390;8.616;2022-11-13T09:05:22;9.73;;;5.28;;
37677;SDS011;23517;50.390;8.616;2022-11-13T09:07:49;5.85;;;4.82;;
37677;SDS011;23517;50.390;8.616;2022-11-13T09:10:17;5.78;;;4.32;;
37677;SDS011;23517;50.390;8.616;2022-11-13T09:12:43;6.15;;;4.40;;
37677;SDS011;23517;50.390;8.616;2022-11-13T09:15:10;4.35;;;3.92;;
37677;SDS011;23517;50.390;8.616;2022-11-13T09:17:37;5.95;;;4.43;;
37677;SDS011;23517;50.390;8.616;2022-11-13T09:20:04;10.02;;;5.30;;
37677;SDS011;23517;50.390;8.616;2022-11-13T09:22:38;14.95;;;8.85;;
37677;SDS011;23517;50.390;8.616;2022-11-13T09:25:05;8.73;;;6.45;;
37677;SDS011;23517;50.390;8.616;2022-11-13T09:27:32;7.38;;;4.85;;
37677;SDS011;23517;50.390;8.616;2022-11-13T09:29:59;15.85;;;9.43;;
37677;SDS011;23517;50.390;8.616;2022-11-13T09:32:25;10.00;;;6.80;;
37677;SDS011;23517;50.390;8.616;2022-11-13T09:34:52;3.70;;;2.88;;
37677;SDS011;23517;50.390;8.616;2022-11-13T09:37:19;5.57;;;3.88;;
37677;SDS011;23517;50.390;8.616;2022-11-13T09:39:45;7.18;;;4.68;;
37677;SDS011;23517;50.390;8.616;2022-11-13T09:42:16;5.95;;;4.43;;
37677;SDS011;23517;50.390;8.616;2022-11-13T09:44:48;9.18;;;5.60;;
37677;SDS011;23517;50.390;8.616;2022-11-13T09:47:25;9.07;;;6.28;;
37677;SDS011;23517;50.390;8.616;2022-11-13T09:49:59;6.22;;;4.53;;
37677;SDS011;23517;50.390;8.616;2022-11-13T09:52:43;8.68;;;6.05;;
37677;SDS011;23517;50.390;8.616;2022-11-13T09:55:11;7.45;;;5.55;;
37677;SDS011;23517;50.390;8.616;2022-11-13T09:57:43;6.50;;;4.95;;
37677;SDS011;23517;50.390;8.616;2022-11-13T10:00:36;5.60;;;3.95;;
37677;SDS011;23517;50.390;8.616;2022-11-13T10:03:16;5.07;;;3.70;;
37677;SDS011;23517;50.390;8.616;2022-11-13T10:06:28;5.00;;;3.38;;
37677;SDS011;23517;50.390;8.616;2022-11-13T10:09:27;4.32;;;3.38;;
37677;SDS011;23517;50.390;8.616;2022-11-13T10:12:16;4.40;;;3.15;;
37677;SDS011;23517;50.390;8.616;2022-11-13T10:14:45;2.85;;;2.58;;
37677;SDS011;23517;50.390;8.616;2022-11-13T10:20:06;4.20;;;3.30;;
37677;SDS011;23517;50.390;8.616;2022-11-13T10:22:50;5.50;;;3.40;;
37677;SDS011;23517;50.390;8.616;2022-11-13T10:25:24;4.53;;;4.00;;
37677;SDS011;23517;50.390;8.616;2022-11-13T10:27:56;4.97;;;4.22;;
37677;SDS011;23517;50.390;8.616;2022-11-13T10:30:29;5.55;;;4.43;;
37677;SDS011;23517;50.390;8.616;2022-11-13T10:33:00;5.03;;;4.30;;
37677;SDS011;23517;50.390;8.616;2022-11-13T10:40:49;4.72;;;4.28;;
37677;SDS011;23517;50.390;8.616;2022-11-13T10:43:19;6.97;;;4.25;;
37677;SDS011;23517;50.390;8.616;2022-11-13T10:45:58;8.40;;;5.38;;
37677;SDS011;23517;50.390;8.616;2022-11-13T10:48:32;8.48;;;5.88;;
37677;SDS011;23517;50.390;8.616;2022-11-13T10:51:05;8.18;;;5.05;;
37677;SDS011;23517;50.390;8.616;2022-11-13T10:53:56;6.20;;;4.80;;
37677;SDS011;23517;50.390;8.616;2022-11-13T10:56:28;6.57;;;4.40;;
37677;SDS011;23517;50.390;8.616;2022-11-13T10:59:19;6.82;;;4.15;;
37677;SDS011;23517;50.390;8.616;2022-11-13T11:01:45;5.63;;;4.43;;
37677;SDS011;23517;50.390;8.616;2022-11-13T11:04:13;7.28;;;4.30;;
37677;SDS011;23517;50.390;8.616;2022-11-13T11:06:52;5.40;;;3.95;;
37677;SDS011;23517;50.390;8.616;2022-11-13T11:09:40;7.75;;;4.38;;
37677;SDS011;23517;50.390;8.616;2022-11-13T11:12:16;5.35;;;4.30;;
37677;SDS011;23517;50.390;8.616;2022-11-13T11:20:20;12.32;;;6.38;;
37677;SDS011;23517;50.390;8.616;2022-11-13T11:23:14;9.57;;;6.55;;
37677;SDS011;23517;50.390;8.616;2022-11-13T11:25:53;10.35;;;6.53;;
37677;SDS011;23517;50.390;8.616;2022-11-13T11:33:49;7.38;;;5.22;;
37677;SDS011;23517;50.390;8.616;2022-11-13T11:36:21;6.20;;;4.53;;
37677;SDS011;23517;50.390;8.616;2022-11-13T11:42:14;6.72;;;4.90;;
37677;SDS011;23517;50.390;8.616;2022-11-13T11:47:52;6.57;;;4.97;;
37677;SDS011;23517;50.390;8.616;2022-11-13T11:50:27;10.15;;;5.07;;
37677;SDS011;23517;50.390;8.616;2022-11-13T11:53:45;6.60;;;4.28;;
37677;SDS011;23517;50.390;8.616;2022-11-13T11:56:48;8.85;;;5.10;;
37677;SDS011;23517;50.390;8.616;2022-11-13T12:07:48;8.57;;;5.25;;
37677;SDS011;23517;50.390;8.616;2022-11-13T12:10:49;6.82;;;5.22;;
37677;SDS011;23517;50.390;8.616;2022-11-13T12:13:30;6.65;;;5.00;;
37677;SDS011;23517;50.390;8.616;2022-11-13T12:16:15;8.82;;;5.93;;
37677;SDS011;23517;50.390;8.616;2022-11-13T12:19:04;12.95;;;7.80;;
37677;SDS011;23517;50.390;8.616;2022-11-13T12:22:09;7.15;;;5.50;;
37677;SDS011;23517;50.390;8.616;2022-11-13T12:24:56;5.57;;;4.75;;
37677;SDS011;23517;50.390;8.616;2022-11-13T12:27:46;5.78;;;5.00;;
37677;SDS011;23517;50.390;8.616;2022-11-13T12:30:35;5.00;;;4.25;;
37677;SDS011;23517;50.390;8.616;2022-11-13T12:33:27;6.47;;;4.45;;
37677;SDS011;23517;50.390;8.616;2022-11-13T12:36:26;4.30;;;3.58;;
37677;SDS011;23517;50.390;8.616;2022-11-13T12:39:00;11.70;;;6.25;;
37677;SDS011;23517;50.390;8.616;2022-11-13T12:41:58;8.20;;;5.97;;
37677;SDS011;23517;50.390;8.616;2022-11-13T12:44:59;6.47;;;3.92;;
37677;SDS011;23517;50.390;8.616;2022-11-13T12:47:46;7.80;;;3.97;;
37677;SDS011;23517;50.390;8.616;2022-11-13T12:50:22;6.38;;;3.42;;
37677;SDS011;23517;50.390;8.616;2022-11-13T12:53:01;5.30;;;3.38;;
37677;SDS011;23517;50.390;8.616;2022-11-13T12:55:34;9.95;;;5.15;;
37677;SDS011;23517;50.390;8.616;2022-11-13T12:58:25;13.35;;;7.28;;
37677;SDS011;23517;50.390;8.616;2022-11-13T13:00:59;21.70;;;9.50;;
37677;SDS011;23517;50.390;8.616;2022-11-13T13:06:26;11.98;;;6.15;;
37677;SDS011;23517;50.390;8.616;2022-11-13T13:09:36;19.40;;;11.20;;
37677;SDS011;23517;50.390;8.616;2022-11-13T13:12:23;25.83;;;14.07;;
37677;SDS011;23517;50.390;8.616;2022-11-13T13:15:36;16.65;;;9.80;;
37677;SDS011;23517;50.390;8.616;2022-11-13T13:18:10;16.48;;;8.85;;
37677;SDS011;23517;50.390;8.616;2022-11-13T13:23:39;13.88;;;7.53;;
37677;SDS011;23517;50.390;8.616;2022-11-13T13:28:54;6.82;;;4.60;;
37677;SDS011;23517;50.390;8.616;2022-11-13T13:31:35;5.88;;;3.78;;
37677;SDS011;23517;50.390;8.616;2022-11-13T13:34:21;6.93;;;3.92;;
37677;SDS011;23517;50.390;8.616;2022-11-13T13:37:31;3.08;;;2.53;;
37677;SDS011;23517;50.390;8.616;2022-11-13T13:46:17;3.65;;;2.72;;
37677;SDS011;23517;50.390;8.616;2022-11-13T13:48:47;3.63;;;3.08;;
37677;SDS011;23517;50.390;8.616;2022-11-13T13:51:28;6.05;;;2.80;;
37677;SDS011;23517;50.390;8.616;2022-11-13T13:54:05;4.57;;;3.47;;
37677;SDS011;23517;50.390;8.616;2022-11-13T13:56:38;3.20;;;2.85;;
37677;SDS011;23517;50.390;8.616;2022-11-13T13:59:17;3.03;;;2.63;;
37677;SDS011;23517;50.390;8.616;2022-11-13T14:01:55;3.63;;;2.95;;
37677;SDS011;23517;50.390;8.616;2022-11-13T14:04:27;4.70;;;3.38;;
37677;SDS011;23517;50.390;8.616;2022-11-13T14:07:25;3.88;;;3.10;;
37677;SDS011;23517;50.390;8.616;2022-11-13T14:10:04;4.82;;;2.78;;
37677;SDS011;23517;50.390;8.616;2022-11-13T14:12:41;3.90;;;3.17;;
37677;SDS011;23517;50.390;8.616;2022-11-13T14:15:26;6.15;;;3.30;;
37677;SDS011;23517;50.390;8.616;2022-11-13T14:18:05;3.38;;;2.65;;
37677;SDS011;23517;50.390;8.616;2022-11-13T14:20:50;3.53;;;2.58;;
37677;SDS011;23517;50.390;8.616;2022-11-13T14:23:21;4.72;;;2.78;;
37677;SDS011;23517;50.390;8.616;2022-11-13T14:25:53;4.32;;;3.22;;
37677;SDS011;23517;50.390;8.616;2022-11-13T14:28:22;4.13;;;3.00;;
37677;SDS011;23517;50.390;8.616;2022-11-13T14:30:56;5.25;;;3.03;;
37677;SDS011;23517;50.390;8.616;2022-11-13T14:33:37;5.07;;;2.90;;
37677;SDS011;23517;50.390;8.616;2022-11-13T14:36:10;4.80;;;3.03;;
37677;SDS011;23517;50.390;8.616;2022-11-13T14:38:39;6.45;;;3.65;;
37677;SDS011;23517;50.390;8.616;2022-11-13T14:41:18;8.10;;;3.63;;
37677;SDS011;23517;50.390;8.616;2022-11-13T14:44:02;5.10;;;3.55;;
37677;SDS011;23517;50.390;8.616;2022-11-13T14:46:33;7.10;;;3.83;;
37677;SDS011;23517;50.390;8.616;2022-11-13T14:49:29;7.07;;;4.78;;
37677;SDS011;23517;50.390;8.616;2022-11-13T14:51:59;13.32;;;7.00;;
37677;SDS011;23517;50.390;8.616;2022-11-13T14:54:27;16.70;;;8.73;;
37677;SDS011;23517;50.390;8.616;2022-11-13T14:57:20;14.32;;;7.25;;
37677;SDS011;23517;50.390;8.616;2022-11-13T14:59:46;13.82;;;6.47;;
37677;SDS011;23517;50.390;8.616;2022-11-13T15:02:13;9.63;;;4.38;;
37677;SDS011;23517;50.390;8.616;2022-11-13T15:04:39;8.13;;;4.43;;
37677;SDS011;23517;50.390;8.616;2022-11-13T15:07:20;7.93;;;3.78;;
37677;SDS011;23517;50.390;8.616;2022-11-13T15:09:56;7.32;;;3.85;;
37677;SDS011;23517;50.390;8.616;2022-11-13T15:12:24;9.20;;;3.72;;
37677;SDS011;23517;50.390;8.616;2022-11-13T15:14:51;6.03;;;3.40;;
37677;SDS011;23517;50.390;8.616;2022-11-13T15:17:18;8.18;;;3.10;;
37677;SDS011;23517;50.390;8.616;2022-11-13T15:19:47;6.15;;;3.00;;
37677;SDS011;23517;50.390;8.616;2022-11-13T15:22:17;5.95;;;3.25;;
37677;SDS011;23517;50.390;8.616;2022-11-13T15:24:53;6.25;;;2.58;;
37677;SDS011;23517;50.390;8.616;2022-11-13T15:27:20;5.38;;;2.67;;
37677;SDS011;23517;50.390;8.616;2022-11-13T15:29:50;7.25;;;2.85;;
37677;SDS011;23517;50.390;8.616;2022-11-13T15:32:17;7.40;;;3.40;;
37677;SDS011;23517;50.390;8.616;2022-11-13T15:34:43;7.95;;;4.72;;
37677;SDS011;23517;50.390;8.616;2022-11-13T15:37:11;25.45;;;12.25;;
37677;SDS011;23517;50.390;8.616;2022-11-13T15:39:40;12.57;;;6.78;;
37677;SDS011;23517;50.390;8.616;2022-11-13T15:42:10;16.02;;;7.70;;
37677;SDS011;23517;50.390;8.616;2022-11-13T15:44:40;8.38;;;3.67;;
37677;SDS011;23517;50.390;8.616;2022-11-13T15:47:14;11.93;;;3.67;;
37677;SDS011;23517;50.390;8.616;2022-11-13T15:50:02;8.35;;;4.50;;
37677;SDS011;23517;50.390;8.616;2022-11-13T15:52:41;7.32;;;3.53;;
37677;SDS011;23517;50.390;8.616;2022-11-13T15:55:45;9.63;;;4.40;;
37677;SDS011;23517;50.390;8.616;2022-11-13T15:58:09;10.05;;;4.57;;
37677;SDS011;23517;50.390;8.616;2022-11-13T16:00:43;8.68;;;4.60;;
37677;SDS011;23517;50.390;8.616;2022-11-13T16:03:11;8.30;;;4.45;;
37677;SDS011;23517;50.390;8.616;2022-11-13T16:05:37;22.60;;;8.85;;
37677;SDS011;23517;50.390;8.616;2022-11-13T16:08:09;12.63;;;6.65;;
37677;SDS011;23517;50.390;8.616;2022-11-13T16:10:37;17.27;;;4.82;;
37677;SDS011;23517;50.390;8.616;2022-11-13T16:13:04;24.75;;;9.25;;
37677;SDS011;23517;50.390;8.616;2022-11-13T16:15:31;55.75;;;23.15;;
37677;SDS011;23517;50.390;8.616;2022-11-13T16:17:57;34.88;;;14.60;;
37677;SDS011;23517;50.390;8.616;2022-11-13T16:20:26;20.40;;;8.45;;